createdAt,value
2022-12-01T00:01:18.639Z,15.30
2022-12-01T00:03:45.222Z,14.68
2022-12-01T00:06:28.946Z,15.47
2022-12-01T00:09:19.192Z,13.40
2022-12-01T00:11:46.239Z,14.75
2022-12-01T00:14:18.983Z,14.15
2022-12-01T00:17:04.993Z,14.23
2022-12-01T00:19:33.601Z,14.43
2022-12-01T00:22:33.067Z,13.93
2022-12-01T00:25:17.732Z,14.27
2022-12-01T00:27:52.992Z,13.40
2022-12-01T00:30:27.596Z,14.45
2022-12-01T00:32:53.974Z,13.60
2022-12-01T00:36:05.099Z,13.80
2022-12-01T00:38:32.152Z,14.98
2022-12-01T00:40:58.607Z,13.25
2022-12-01T00:44:08.955Z,14.50
2022-12-01T00:46:35.419Z,13.80
2022-12-01T00:49:01.814Z,13.88
2022-12-01T00:51:28.281Z,13.73
2022-12-01T00:53:57.758Z,14.25
2022-12-01T00:57:07.779Z,13.32
2022-12-01T00:59:35.117Z,14.03
2022-12-01T01:02:06.509Z,14.25
2022-12-01T01:05:31.126Z,13.68
2022-12-01T01:08:10.265Z,13.45
2022-12-01T01:10:47.562Z,13.23
2022-12-01T01:13:16.346Z,13.33
2022-12-01T01:16:07.409Z,12.80
2022-12-01T01:18:34.167Z,12.98
2022-12-01T01:21:39.685Z,14.40
2022-12-01T01:24:06.451Z,13.18
2022-12-01T01:26:33.584Z,13.13
2022-12-01T01:29:02.307Z,12.82
2022-12-01T01:31:36.740Z,14.07
2022-12-01T01:34:03.968Z,12.82
2022-12-01T01:36:42.778Z,13.88
2022-12-01T01:39:26.624Z,14.13
2022-12-01T01:42:38.788Z,13.43
2022-12-01T01:49:05.347Z,12.35
2022-12-01T01:51:57.931Z,12.52
2022-12-01T01:54:31.556Z,13.57
2022-12-01T01:57:01.757Z,13.05
2022-12-01T01:59:42.839Z,13.93
2022-12-01T02:02:57.998Z,13.38
2022-12-01T02:05:28.007Z,12.50
2022-12-01T02:07:58.493Z,13.47
2022-12-01T02:11:09.747Z,13.82
2022-12-01T02:14:25.112Z,13.13
2022-12-01T02:17:32.087Z,13.25
2022-12-01T02:20:53.280Z,14.00
2022-12-01T02:23:48.162Z,12.13
2022-12-01T02:26:42.608Z,12.80
2022-12-01T02:29:18.195Z,12.32
2022-12-01T02:31:58.954Z,13.93
2022-12-01T02:34:44.311Z,12.38
2022-12-01T02:37:23.513Z,12.53
2022-12-01T02:40:26.565Z,13.13
2022-12-01T02:43:18.745Z,13.38
2022-12-01T02:46:10.906Z,13.32
2022-12-01T02:48:51.326Z,15.20
2022-12-01T02:51:26.643Z,14.50
2022-12-01T02:54:22.126Z,12.60
2022-12-01T02:56:52.851Z,14.65
2022-12-01T02:59:30.695Z,13.65
2022-12-01T03:02:49.613Z,13.70
2022-12-01T03:05:55.311Z,14.10
2022-12-01T03:08:28.789Z,13.98
2022-12-01T03:11:01.447Z,13.93
2022-12-01T03:14:12.567Z,13.07
2022-12-01T03:16:59.378Z,13.18
2022-12-01T03:19:37.247Z,14.47
2022-12-01T03:22:29.746Z,14.07
2022-12-01T03:25:01.337Z,13.45
2022-12-01T03:27:33.369Z,13.88
2022-12-01T03:30:29.756Z,14.07
2022-12-01T03:33:09.903Z,12.43
2022-12-01T03:35:56.289Z,13.05
2022-12-01T03:38:27.828Z,14.57
2022-12-01T03:41:03.532Z,13.90
2022-12-01T03:43:36.777Z,14.05
2022-12-01T03:46:15.552Z,13.10
2022-12-01T03:49:17.332Z,13.32
2022-12-01T03:52:28.450Z,13.60
2022-12-01T03:55:32.162Z,13.18
2022-12-01T03:58:04.406Z,12.85
2022-12-01T04:00:43.768Z,13.97
2022-12-01T04:03:35.780Z,13.50
2022-12-01T04:06:55.228Z,13.25
2022-12-01T04:09:24.177Z,13.57
2022-12-01T04:16:25.836Z,13.20
2022-12-01T04:19:06.760Z,12.80
2022-12-01T04:21:35.271Z,12.88
2022-12-01T04:24:30.742Z,12.88
2022-12-01T04:27:02.211Z,12.88
2022-12-01T04:29:28.594Z,13.83
2022-12-01T04:31:55.219Z,14.90
2022-12-01T04:34:40.914Z,13.93
2022-12-01T04:37:12.132Z,13.65
2022-12-01T04:39:38.668Z,15.48
2022-12-01T04:42:25.388Z,15.00
2022-12-01T04:45:12.146Z,14.40
2022-12-01T04:47:38.608Z,15.13
2022-12-01T04:50:05.676Z,14.13
2022-12-01T04:52:35.277Z,14.10
2022-12-01T04:55:03.359Z,14.03
2022-12-01T04:57:49.934Z,14.77
2022-12-01T05:00:16.508Z,14.68
2022-12-01T05:02:43.690Z,13.77
2022-12-01T05:05:38.967Z,14.65
2022-12-01T05:08:09.802Z,14.33
2022-12-01T05:10:37.551Z,14.75
2022-12-01T05:13:05.603Z,14.27
2022-12-01T05:19:53.359Z,14.68
2022-12-01T05:23:05.315Z,12.63
2022-12-01T05:26:01.310Z,13.10
2022-12-01T05:28:41.987Z,12.65
2022-12-01T05:31:08.459Z,13.05
2022-12-01T05:33:49.158Z,13.10
2022-12-01T05:36:15.715Z,13.80
2022-12-01T05:38:42.147Z,14.07
2022-12-01T05:41:09.219Z,14.20
2022-12-01T05:43:35.782Z,12.90
2022-12-01T05:46:02.419Z,13.88
2022-12-01T05:48:43.335Z,13.73
2022-12-01T05:51:59.706Z,13.85
2022-12-01T05:54:26.171Z,14.75
2022-12-01T05:57:20.558Z,13.90
2022-12-01T05:59:56.442Z,14.23
2022-12-01T06:03:02.183Z,12.93
2022-12-01T06:05:28.636Z,14.05
2022-12-01T06:08:10.408Z,13.88
2022-12-01T06:10:54.299Z,13.60
2022-12-01T06:13:27.930Z,13.90
2022-12-01T06:16:21.623Z,12.73
2022-12-01T06:18:59.425Z,13.20
2022-12-01T06:21:40.043Z,13.05
2022-12-01T06:24:22.861Z,12.98
2022-12-01T06:26:57.535Z,14.23
2022-12-01T06:29:23.903Z,13.67
2022-12-01T06:31:51.555Z,14.20
2022-12-01T06:34:31.216Z,12.43
2022-12-01T06:37:47.617Z,13.02
2022-12-01T06:40:14.419Z,12.75
2022-12-01T06:42:41.897Z,12.60
2022-12-01T06:45:50.254Z,12.02
2022-12-01T06:48:31.623Z,12.25
2022-12-01T06:51:06.099Z,11.13
2022-12-01T06:53:47.774Z,12.48
2022-12-01T06:56:52.359Z,11.90
2022-12-01T06:59:21.109Z,12.75
2022-12-01T07:01:58.093Z,14.48
2022-12-01T07:04:24.520Z,13.65
2022-12-01T07:06:50.915Z,12.80
2022-12-01T07:09:34.825Z,11.63
2022-12-01T07:12:15.533Z,13.70
2022-12-01T07:15:19.642Z,13.40
2022-12-01T07:17:48.062Z,13.75
2022-12-01T07:20:33.848Z,12.45
2022-12-01T07:23:31.963Z,13.20
2022-12-01T07:26:00.388Z,13.45
2022-12-01T07:28:27.974Z,13.98
2022-12-01T07:31:28.623Z,14.23
2022-12-01T07:34:06.572Z,12.50
2022-12-01T07:36:39.307Z,14.97
2022-12-01T07:39:08.747Z,13.60
2022-12-01T07:41:35.771Z,14.88
2022-12-01T07:44:32.420Z,14.23
2022-12-01T07:47:31.957Z,14.20
2022-12-01T07:50:21.346Z,14.53
2022-12-01T07:52:59.071Z,13.93
2022-12-01T07:55:25.570Z,14.30
2022-12-01T07:58:02.300Z,14.70
2022-12-01T08:00:29.847Z,15.32
2022-12-01T08:02:56.400Z,14.03
2022-12-01T08:05:22.827Z,15.65
2022-12-01T08:07:49.329Z,15.80
2022-12-01T08:10:44.719Z,15.10
2022-12-01T08:13:17.002Z,14.65
2022-12-01T08:15:44.221Z,14.23
2022-12-01T08:18:26.987Z,14.55
2022-12-01T08:21:01.762Z,15.52
2022-12-01T08:23:37.477Z,14.85
2022-12-01T08:26:06.755Z,15.10
2022-12-01T08:28:46.316Z,15.33
2022-12-01T08:31:33.230Z,15.73
2022-12-01T08:34:37.970Z,15.93
2022-12-01T08:37:04.536Z,17.00
2022-12-01T08:39:30.988Z,15.95
2022-12-01T08:42:03.765Z,14.83
2022-12-01T08:44:32.232Z,16.33
2022-12-01T08:46:58.797Z,16.60
2022-12-01T08:49:26.379Z,16.02
2022-12-01T08:51:52.897Z,16.35
2022-12-01T08:54:19.309Z,16.43
2022-12-01T08:56:45.911Z,17.48
2022-12-01T08:59:13.008Z,16.95
2022-12-01T09:01:52.226Z,16.83
2022-12-01T09:04:26.681Z,16.95
2022-12-01T09:06:56.228Z,16.80
2022-12-01T09:09:28.605Z,18.67
2022-12-01T09:12:03.370Z,18.30
2022-12-01T09:14:29.739Z,16.85
2022-12-01T09:16:56.132Z,17.65
2022-12-01T09:19:25.108Z,16.70
2022-12-01T09:21:52.506Z,18.23
2022-12-01T09:24:18.879Z,17.85
2022-12-01T09:26:45.338Z,17.20
2022-12-01T09:29:13.738Z,18.05
2022-12-01T09:31:41.315Z,18.37
2022-12-01T09:34:11.871Z,17.30
2022-12-01T09:36:38.970Z,17.23
2022-12-01T09:39:11.821Z,18.05
2022-12-01T09:41:40.683Z,18.05
2022-12-01T09:44:13.953Z,16.43
2022-12-01T09:46:46.010Z,16.73
2022-12-01T09:49:18.867Z,17.77
2022-12-01T09:51:45.498Z,17.58
2022-12-01T09:54:14.276Z,16.75
2022-12-01T09:56:52.909Z,16.83
2022-12-01T09:59:48.685Z,17.02
2022-12-01T10:02:32.481Z,17.60
2022-12-01T10:05:04.390Z,16.23
2022-12-01T10:07:42.897Z,16.98
2022-12-01T10:10:24.913Z,16.87
2022-12-01T10:13:19.907Z,18.80
2022-12-01T10:16:13.231Z,17.23
2022-12-01T10:18:46.270Z,16.38
2022-12-01T10:21:22.090Z,17.65
2022-12-01T10:24:17.302Z,17.67
2022-12-01T10:27:29.455Z,17.10
2022-12-01T10:30:39.219Z,17.40
2022-12-01T10:33:49.209Z,16.98
2022-12-01T10:36:18.660Z,18.10
2022-12-01T10:39:07.102Z,17.80
2022-12-01T10:41:37.749Z,18.33
2022-12-01T10:44:19.694Z,18.52
2022-12-01T10:46:49.188Z,17.98
2022-12-01T10:49:17.624Z,18.63
2022-12-01T10:52:07.488Z,19.30
2022-12-01T10:54:38.487Z,18.13
2022-12-01T10:57:16.153Z,18.83
2022-12-01T10:59:53.129Z,16.77
2022-12-01T11:02:22.847Z,18.58
2022-12-01T11:04:55.775Z,17.63
2022-12-01T11:07:34.879Z,16.95
2022-12-01T11:10:37.243Z,17.50
2022-12-01T11:13:35.599Z,17.50
2022-12-01T11:16:04.960Z,17.23
2022-12-01T11:18:42.821Z,17.47
2022-12-01T11:21:13.442Z,16.88
2022-12-01T11:23:48.203Z,18.17
2022-12-01T11:26:58.334Z,16.15
2022-12-01T11:29:32.605Z,17.67
2022-12-01T11:32:00.709Z,15.67
2022-12-01T11:34:50.830Z,17.17
2022-12-01T11:37:38.550Z,16.75
2022-12-01T11:40:43.755Z,15.63
2022-12-01T11:43:21.198Z,15.63
2022-12-01T11:45:53.330Z,16.13
2022-12-01T11:48:29.233Z,17.50
2022-12-01T11:51:24.074Z,14.93
2022-12-01T11:54:05.831Z,15.10
2022-12-01T11:56:52.807Z,15.48
2022-12-01T11:59:30.834Z,14.70
2022-12-01T12:02:09.959Z,16.15
2022-12-01T12:04:56.067Z,18.17
2022-12-01T12:07:34.917Z,14.95
2022-12-01T12:10:51.216Z,15.13
2022-12-01T12:14:03.276Z,15.37
2022-12-01T12:20:53.734Z,15.93
2022-12-01T12:23:47.751Z,15.30
2022-12-01T12:26:22.849Z,15.48
2022-12-01T12:29:22.003Z,16.73
2022-12-01T12:32:05.002Z,15.38
2022-12-01T12:35:09.776Z,17.67
2022-12-01T12:37:53.752Z,15.13
2022-12-01T12:40:43.434Z,15.80
2022-12-01T12:43:55.675Z,14.27
2022-12-01T12:47:04.293Z,14.70
2022-12-01T12:49:45.779Z,16.42
2022-12-01T12:52:33.168Z,15.10
2022-12-01T12:55:08.391Z,15.10
2022-12-01T12:57:48.303Z,14.37
2022-12-01T13:01:05.785Z,14.85
2022-12-01T13:04:03.742Z,13.60
2022-12-01T13:07:15.642Z,13.95
2022-12-01T13:10:06.995Z,15.18
2022-12-01T13:12:58.331Z,15.27
2022-12-01T13:15:27.257Z,15.82
2022-12-01T13:18:02.646Z,16.02
2022-12-01T13:20:34.743Z,15.02
2022-12-01T13:23:16.566Z,15.00
2022-12-01T13:26:01.222Z,16.13
2022-12-01T13:28:35.274Z,14.80
2022-12-01T13:31:15.071Z,16.25
2022-12-01T13:34:01.791Z,14.95
2022-12-01T13:36:49.477Z,15.68
2022-12-01T13:39:59.743Z,14.37
2022-12-01T13:42:54.671Z,14.20
2022-12-01T13:46:06.023Z,15.25
2022-12-01T13:48:41.645Z,14.88
2022-12-01T13:51:08.395Z,14.52
2022-12-01T13:57:27.055Z,14.32
2022-12-01T13:59:59.389Z,14.52
2022-12-01T14:02:28.458Z,14.68
2022-12-01T14:04:55.040Z,14.50
2022-12-01T14:07:26.307Z,15.10
2022-12-01T14:10:08.310Z,13.98
2022-12-01T14:12:51.366Z,14.02
2022-12-01T14:15:37.628Z,14.65
2022-12-01T14:18:08.270Z,14.88
2022-12-01T14:20:49.431Z,14.57
2022-12-01T14:23:36.992Z,15.63
2022-12-01T14:26:49.856Z,15.13
2022-12-01T14:29:46.307Z,15.23
2022-12-01T14:32:22.765Z,15.23
2022-12-01T14:34:54.699Z,14.57
2022-12-01T14:37:25.509Z,14.45
2022-12-01T14:39:58.048Z,14.48
2022-12-01T14:43:08.515Z,15.15
2022-12-01T14:46:06.087Z,16.35
2022-12-01T14:48:39.082Z,14.63
2022-12-01T14:51:56.356Z,13.43
2022-12-01T14:54:43.144Z,13.98
2022-12-01T14:57:16.738Z,13.93
2022-12-01T14:59:44.479Z,13.60
2022-12-01T15:02:17.221Z,13.80
2022-12-01T15:05:15.798Z,13.90
2022-12-01T15:07:45.571Z,13.23
2022-12-01T15:10:48.033Z,13.63
2022-12-01T15:13:45.161Z,12.52
2022-12-01T15:16:18.652Z,13.07
2022-12-01T15:18:45.521Z,12.20
2022-12-01T15:21:47.107Z,13.50
2022-12-01T15:24:30.595Z,12.27
2022-12-01T15:27:03.668Z,13.02
2022-12-01T15:29:35.415Z,12.33
2022-12-01T15:32:08.450Z,13.98
2022-12-01T15:35:05.334Z,13.45
2022-12-01T15:37:42.474Z,13.40
2022-12-01T15:43:23.242Z,13.73
2022-12-01T15:46:37.466Z,12.52
2022-12-01T15:49:33.141Z,13.95
2022-12-01T15:52:11.869Z,13.68
2022-12-01T15:54:38.862Z,13.70
2022-12-01T15:57:56.944Z,14.53
2022-12-01T16:00:26.690Z,11.93
2022-12-01T16:02:57.372Z,13.32
2022-12-01T16:05:30.106Z,12.77
2022-12-01T16:08:48.689Z,14.23
2022-12-01T16:11:18.223Z,13.83
2022-12-01T16:14:21.688Z,15.32
2022-12-01T16:17:43.003Z,15.82
2022-12-01T16:20:25.655Z,15.40
2022-12-01T16:23:22.389Z,14.15
2022-12-01T16:25:49.019Z,14.10
2022-12-01T16:28:23.121Z,13.45
2022-12-01T16:30:50.327Z,15.05
2022-12-01T16:33:42.718Z,13.80
2022-12-01T16:36:54.311Z,13.13
2022-12-01T16:39:43.368Z,13.63
2022-12-01T16:42:24.541Z,13.98
2022-12-01T16:44:52.566Z,14.38
2022-12-01T16:47:24.992Z,13.77
2022-12-01T16:49:52.237Z,15.70
2022-12-01T16:52:44.911Z,16.57
2022-12-01T16:55:33.041Z,17.00
2022-12-01T16:58:00.606Z,18.10
2022-12-01T17:00:33.150Z,17.58
2022-12-01T17:03:12.747Z,18.40
2022-12-01T17:05:40.462Z,18.10
2022-12-01T17:08:07.031Z,17.75
2022-12-01T17:10:33.571Z,17.63
2022-12-01T17:13:00.211Z,18.45
2022-12-01T17:16:19.071Z,18.65
2022-12-01T17:18:45.568Z,17.93
2022-12-01T17:21:32.294Z,19.85
2022-12-01T17:24:04.371Z,21.27
2022-12-01T17:26:37.971Z,22.30
2022-12-01T17:29:14.630Z,20.70
2022-12-01T17:31:41.012Z,21.40
2022-12-01T17:34:07.410Z,21.10
2022-12-01T17:36:33.767Z,21.50
2022-12-01T17:39:10.471Z,18.70
2022-12-01T17:41:36.819Z,18.02
2022-12-01T17:47:57.882Z,18.33
2022-12-01T17:54:13.964Z,16.52
2022-12-01T17:57:27.252Z,17.13
2022-12-01T18:00:22.723Z,17.30
2022-12-01T18:03:24.043Z,16.20
2022-12-01T18:06:12.475Z,18.27
2022-12-01T18:08:59.616Z,15.20
2022-12-01T18:11:31.766Z,17.40
2022-12-01T18:14:10.526Z,18.20
2022-12-01T18:16:36.940Z,16.83
2022-12-01T18:19:04.388Z,17.27
2022-12-01T18:21:30.849Z,16.40
2022-12-01T18:24:02.790Z,18.98
2022-12-01T18:27:08.268Z,21.63
2022-12-01T18:29:50.047Z,20.35
2022-12-01T18:32:31.190Z,21.83
2022-12-01T18:35:19.436Z,20.65
2022-12-01T18:38:04.123Z,19.98
2022-12-01T18:40:30.479Z,20.17
2022-12-01T18:43:01.788Z,19.45
2022-12-01T18:45:43.458Z,19.67
2022-12-01T18:51:54.520Z,16.65
2022-12-01T18:54:20.906Z,16.40
2022-12-01T18:57:03.812Z,15.93
2022-12-01T18:59:45.437Z,17.60
2022-12-01T19:02:21.986Z,15.82
2022-12-01T19:04:50.044Z,15.10
2022-12-01T19:07:16.683Z,15.90
2022-12-01T19:09:51.230Z,17.02
2022-12-01T19:12:29.797Z,16.90
2022-12-01T19:14:56.908Z,17.58
2022-12-01T19:17:32.008Z,16.42
2022-12-01T19:19:59.054Z,16.57
2022-12-01T19:22:28.557Z,18.40
2022-12-01T19:24:55.230Z,18.20
2022-12-01T19:27:21.933Z,17.75
2022-12-01T19:29:49.477Z,18.67
2022-12-01T19:32:16.151Z,17.43
2022-12-01T19:35:00.004Z,17.90
2022-12-01T19:37:30.542Z,17.92
2022-12-01T19:40:03.192Z,16.33
2022-12-01T19:42:34.647Z,17.90
2022-12-01T19:45:21.283Z,16.67
2022-12-01T19:47:47.780Z,17.05
2022-12-01T19:50:16.177Z,17.80
2022-12-01T19:52:51.876Z,17.90
2022-12-01T19:55:18.270Z,16.83
2022-12-01T19:57:44.728Z,18.30
2022-12-01T20:00:11.808Z,17.20
2022-12-01T20:02:38.273Z,18.27
2022-12-01T20:05:22.058Z,15.88
2022-12-01T20:07:48.622Z,15.98
2022-12-01T20:10:19.983Z,15.67
2022-12-01T20:12:50.580Z,16.02
2022-12-01T20:15:17.352Z,17.10
2022-12-01T20:17:56.008Z,15.95
2022-12-01T20:20:22.467Z,18.00
2022-12-01T20:22:48.903Z,17.23
2022-12-01T20:25:15.360Z,16.60
2022-12-01T20:27:42.503Z,17.77
2022-12-01T20:30:09.616Z,17.77
2022-12-01T20:32:36.004Z,19.08
2022-12-01T20:35:02.544Z,17.17
2022-12-01T20:37:28.939Z,16.48
2022-12-01T20:39:55.789Z,17.63
2022-12-01T20:42:24.450Z,17.98
2022-12-01T20:44:51.034Z,19.25
2022-12-01T20:47:21.245Z,16.47
2022-12-01T20:49:47.787Z,17.85
2022-12-01T20:52:14.172Z,17.58
2022-12-01T20:54:42.438Z,18.08
2022-12-01T20:57:08.919Z,19.63
2022-12-01T20:59:35.360Z,17.20
2022-12-01T21:02:01.822Z,17.90
2022-12-01T21:04:28.229Z,16.98
2022-12-01T21:06:56.422Z,16.52
2022-12-01T21:09:22.794Z,16.17
2022-12-01T21:12:09.320Z,17.20
2022-12-01T21:15:08.292Z,15.35
2022-12-01T21:17:42.565Z,17.13
2022-12-01T21:20:39.344Z,16.15
2022-12-01T21:23:10.775Z,16.33
2022-12-01T21:25:39.116Z,16.63
2022-12-01T21:28:24.181Z,15.85
2022-12-01T21:31:01.892Z,15.65
2022-12-01T21:33:35.355Z,16.00
2022-12-01T21:36:06.836Z,17.50
2022-12-01T21:38:33.378Z,16.87
2022-12-01T21:41:09.348Z,16.55
2022-12-01T21:43:38.423Z,16.83
2022-12-01T21:46:13.639Z,17.20
2022-12-01T21:48:47.583Z,17.13
2022-12-01T21:51:23.979Z,18.20
2022-12-01T21:53:52.412Z,15.38
2022-12-01T21:56:25.365Z,16.60
2022-12-01T21:58:53.065Z,15.13
2022-12-01T22:01:29.476Z,15.20
2022-12-01T22:04:31.348Z,17.20
2022-12-01T22:06:58.191Z,16.42
2022-12-01T22:09:31.866Z,17.45
2022-12-01T22:12:27.069Z,15.70
2022-12-01T22:14:59.959Z,17.38
2022-12-01T22:17:27.919Z,16.20
2022-12-01T22:20:27.876Z,17.35
2022-12-01T22:22:54.251Z,16.13
2022-12-01T22:25:27.008Z,16.63
2022-12-01T22:27:53.451Z,16.20
2022-12-01T22:30:22.023Z,17.40
2022-12-01T22:36:31.734Z,16.20
2022-12-01T22:38:58.671Z,15.30
2022-12-01T22:41:26.759Z,16.75
2022-12-01T22:44:00.609Z,15.63
2022-12-01T22:46:29.447Z,15.93
2022-12-01T22:49:22.148Z,16.73
2022-12-01T22:52:01.043Z,17.30
2022-12-01T22:54:32.219Z,16.60
2022-12-01T22:57:11.964Z,17.30
2022-12-01T22:59:41.287Z,18.27
2022-12-01T23:05:57.331Z,18.10
2022-12-01T23:08:49.643Z,18.02
2022-12-01T23:11:30.412Z,17.90
2022-12-01T23:14:13.363Z,18.45
2022-12-01T23:16:40.014Z,16.80
2022-12-01T23:19:09.717Z,17.75
2022-12-01T23:21:36.548Z,17.23
2022-12-01T23:24:04.304Z,17.63
2022-12-01T23:27:21.502Z,18.70
2022-12-01T23:29:51.083Z,17.63
2022-12-01T23:32:27.906Z,18.10
2022-12-01T23:34:59.881Z,17.33
2022-12-01T23:37:34.580Z,17.60
2022-12-01T23:40:29.659Z,18.30
2022-12-01T23:43:02.839Z,17.80
2022-12-01T23:45:36.427Z,19.35
2022-12-01T23:48:17.468Z,18.27
2022-12-01T23:50:49.009Z,18.03
2022-12-01T23:53:25.357Z,18.83
2022-12-01T23:55:51.872Z,19.77
2022-12-01T23:58:20.560Z,20.02
